Time;durP1;ratioP1;P1;durP2;ratioP2;P2;SDS_P1;SDS_P2;PMS_P1;PMS_P2;Temp;Humidity;BMP_temperature;BMP_pressure;BME280_temperature;BME280_humidity;BME280_pressure;Samples;Min_cycle;Max_cycle;Signal;HPM_P1;HPM_P2
2021/06/20 00:00:27;;;;;;;19.85;7.60;;;14.00;99.90;;;;;;5082527;28;20474;-60
2021/06/20 00:02:54;;;;;;;22.85;7.47;;;14.00;99.90;;;;;;5077131;28;20028;-60
2021/06/20 00:05:24;;;;;;;22.48;8.00;;;14.00;99.90;;;;;;5077618;28;20140;-59
2021/06/20 00:07:51;;;;;;;18.52;7.60;;;13.90;99.90;;;;;;5084497;28;20444;-58
2021/06/20 00:10:20;;;;;;;22.65;7.40;;;13.90;99.90;;;;;;5081699;28;20058;-60
2021/06/20 00:12:47;;;;;;;21.60;7.93;;;13.90;99.90;;;;;;5090993;28;20031;-59
2021/06/20 00:15:16;;;;;;;20.73;7.35;;;13.90;99.90;;;;;;5087770;28;20023;-58
2021/06/20 00:17:42;;;;;;;18.65;7.78;;;13.80;99.90;;;;;;5082164;28;20027;-59
2021/06/20 00:20:10;;;;;;;18.40;7.07;;;13.80;99.90;;;;;;5078322;28;20412;-60
2021/06/20 00:22:36;;;;;;;15.20;7.60;;;13.90;99.90;;;;;;5085565;28;20047;-59
2021/06/20 00:25:04;;;;;;;17.95;7.90;;;13.80;99.90;;;;;;5070471;28;20458;-60
2021/06/20 00:27:30;;;;;;;17.83;8.13;;;13.80;99.90;;;;;;5085137;28;20023;-61
2021/06/20 00:29:55;;;;;;;18.17;7.75;;;13.80;99.90;;;;;;5079839;28;20505;-59
2021/06/20 00:32:21;;;;;;;13.73;7.45;;;13.80;99.90;;;;;;5088783;28;20443;-59
2021/06/20 00:34:47;;;;;;;18.50;8.15;;;13.80;99.90;;;;;;5075672;28;20046;-60
2021/06/20 00:37:12;;;;;;;16.83;7.50;;;13.80;99.90;;;;;;5075897;28;20047;-60
2021/06/20 00:39:38;;;;;;;16.42;8.23;;;13.70;99.90;;;;;;5080417;28;20063;-60
2021/06/20 00:42:04;;;;;;;19.98;7.88;;;13.70;99.90;;;;;;5078336;28;20051;-59
2021/06/20 00:44:30;;;;;;;16.90;7.85;;;13.70;99.90;;;;;;5080680;28;20066;-60
2021/06/20 00:46:55;;;;;;;17.52;7.43;;;13.80;99.90;;;;;;5081574;28;20448;-59
2021/06/20 00:49:21;;;;;;;14.48;7.95;;;13.70;99.90;;;;;;5090495;28;20043;-59
2021/06/20 00:51:47;;;;;;;17.15;7.95;;;13.70;99.90;;;;;;5090653;28;20414;-60
2021/06/20 00:54:13;;;;;;;16.90;8.27;;;13.70;99.90;;;;;;5083066;28;20028;-60
2021/06/20 00:56:39;;;;;;;15.70;8.43;;;13.60;99.90;;;;;;5082757;28;20134;-59
2021/06/20 00:59:05;;;;;;;16.58;8.13;;;13.60;99.90;;;;;;5090287;28;20039;-59
2021/06/20 01:01:32;;;;;;;17.83;8.70;;;13.60;99.90;;;;;;5082846;28;20020;-59
2021/06/20 01:03:58;;;;;;;18.15;9.27;;;13.60;99.90;;;;;;5085448;28;20474;-60
2021/06/20 01:06:24;;;;;;;17.50;9.07;;;13.60;99.90;;;;;;5073559;28;20093;-60
2021/06/20 01:08:50;;;;;;;17.77;8.70;;;13.50;99.90;;;;;;5070975;28;20031;-60
2021/06/20 01:11:16;;;;;;;17.73;9.25;;;13.60;99.90;;;;;;5080983;28;20028;-60
2021/06/20 01:13:44;;;;;;;16.35;9.05;;;13.60;99.90;;;;;;5076038;28;20028;-60
2021/06/20 01:16:10;;;;;;;17.13;9.02;;;13.50;99.90;;;;;;5088081;28;20024;-59
2021/06/20 01:18:36;;;;;;;20.80;9.27;;;13.50;99.90;;;;;;5080149;28;20485;-60
2021/06/20 01:21:02;;;;;;;16.35;9.35;;;13.50;99.90;;;;;;5087520;28;20062;-59
2021/06/20 01:23:27;;;;;;;15.30;9.23;;;13.50;99.90;;;;;;5083932;28;20107;-60
2021/06/20 01:25:55;;;;;;;16.10;9.48;;;13.40;99.90;;;;;;5077487;28;20580;-60
2021/06/20 01:28:26;;;;;;;17.38;8.98;;;13.40;99.90;;;;;;5079686;28;20077;-60
2021/06/20 01:30:59;;;;;;;23.77;9.80;;;13.40;99.90;;;;;;5087709;28;20405;-60
2021/06/20 01:33:26;;;;;;;16.30;9.68;;;13.50;99.90;;;;;;5066273;28;20032;-60
2021/06/20 01:35:53;;;;;;;16.88;8.75;;;13.50;99.90;;;;;;5078569;28;20028;-59
2021/06/20 01:38:19;;;;;;;17.52;9.27;;;13.50;99.90;;;;;;5094624;28;20043;-60
2021/06/20 01:40:45;;;;;;;16.05;9.10;;;13.50;99.90;;;;;;5079560;28;20036;-60
2021/06/20 01:43:11;;;;;;;14.88;8.88;;;13.50;99.90;;;;;;5079521;28;20032;-61
2021/06/20 01:45:38;;;;;;;15.93;9.45;;;13.40;99.90;;;;;;5079646;28;20067;-59
2021/06/20 01:48:06;;;;;;;13.45;8.45;;;13.40;99.90;;;;;;5077242;28;20535;-59
2021/06/20 01:50:32;;;;;;;15.02;8.75;;;13.40;99.90;;;;;;5087218;28;20070;-59
2021/06/20 01:53:05;;;;;;;16.33;8.02;;;13.50;99.90;;;;;;5090312;28;20032;-60
2021/06/20 01:55:31;;;;;;;14.88;7.63;;;13.40;99.90;;;;;;5084378;28;20051;-59
2021/06/20 01:57:59;;;;;;;9.77;7.38;;;13.30;99.90;;;;;;5093529;28;20024;-59
2021/06/20 02:00:25;;;;;;;12.52;7.03;;;13.30;99.90;;;;;;5084235;28;20068;-60
2021/06/20 02:02:51;;;;;;;10.85;7.10;;;13.30;99.90;;;;;;5089347;28;20472;-60
2021/06/20 02:05:17;;;;;;;11.68;6.43;;;13.30;99.90;;;;;;5086719;28;20043;-59
2021/06/20 02:07:43;;;;;;;9.77;6.43;;;13.30;99.90;;;;;;5087210;28;20039;-59
2021/06/20 02:10:11;;;;;;;8.73;6.68;;;13.30;99.90;;;;;;5080121;28;20470;-59
2021/06/20 02:12:37;;;;;;;12.55;6.85;;;13.30;99.90;;;;;;5083268;28;20033;-59
2021/06/20 02:15:05;;;;;;;9.73;6.72;;;13.30;99.90;;;;;;5081886;28;20504;-60
2021/06/20 02:17:33;;;;;;;8.57;6.50;;;13.30;99.90;;;;;;5094317;28;20032;-59
2021/06/20 02:20:11;;;;;;;9.55;6.63;;;13.30;99.90;;;;;;5093036;28;20105;-59
2021/06/20 02:22:39;;;;;;;11.93;7.25;;;13.30;99.90;;;;;;5093545;28;20097;-60
2021/06/20 02:25:06;;;;;;;10.35;7.15;;;13.20;99.90;;;;;;5074540;28;20074;-60
2021/06/20 02:27:32;;;;;;;9.57;6.85;;;13.20;99.90;;;;;;5087753;28;20032;-59
2021/06/20 02:29:58;;;;;;;11.82;7.50;;;13.20;99.90;;;;;;5082918;28;20501;-59
2021/06/20 02:32:25;;;;;;;11.65;7.25;;;13.20;99.90;;;;;;5087413;28;20031;-60
2021/06/20 02:34:51;;;;;;;10.85;7.25;;;13.20;99.90;;;;;;5079453;28;20042;-60
2021/06/20 02:37:18;;;;;;;9.82;7.68;;;13.10;99.90;;;;;;5087095;28;20028;-59
2021/06/20 02:39:44;;;;;;;11.10;7.43;;;13.10;99.90;;;;;;5082857;28;20386;-60
2021/06/20 02:42:10;;;;;;;13.13;8.00;;;13.00;99.90;;;;;;5088491;28;20089;-60
2021/06/20 02:44:37;;;;;;;14.48;8.15;;;13.10;99.90;;;;;;5087385;28;20028;-60
2021/06/20 02:47:05;;;;;;;13.65;8.27;;;13.10;99.90;;;;;;5076275;28;20039;-60
2021/06/20 02:49:32;;;;;;;14.38;8.30;;;13.10;99.90;;;;;;5087801;28;20039;-60
2021/06/20 02:51:58;;;;;;;12.55;8.77;;;13.10;99.90;;;;;;5092007;28;20081;-60
2021/06/20 02:54:24;;;;;;;15.43;9.30;;;13.10;99.90;;;;;;5073624;28;20089;-59
2021/06/20 02:56:50;;;;;;;14.25;8.43;;;13.10;99.90;;;;;;5082107;28;20032;-60
2021/06/20 02:59:15;;;;;;;11.80;8.45;;;13.10;99.90;;;;;;5093043;28;20020;-60
2021/06/20 03:01:41;;;;;;;14.23;8.38;;;13.10;99.90;;;;;;5083096;28;20391;-60
2021/06/20 03:04:07;;;;;;;17.60;8.80;;;13.10;99.90;;;;;;5079571;28;20067;-60
2021/06/20 03:06:32;;;;;;;12.32;8.65;;;13.10;99.90;;;;;;5076537;28;20071;-60
2021/06/20 03:08:58;;;;;;;16.58;8.98;;;13.10;99.90;;;;;;5074735;28;20032;-60
2021/06/20 03:11:24;;;;;;;15.02;8.63;;;13.10;99.90;;;;;;5083982;28;20036;-59
2021/06/20 03:13:51;;;;;;;17.48;9.40;;;13.20;99.90;;;;;;5079966;28;20063;-60
2021/06/20 03:16:19;;;;;;;14.75;8.20;;;13.20;99.90;;;;;;5072127;28;20517;-60
2021/06/20 03:18:45;;;;;;;15.07;8.55;;;13.20;99.90;;;;;;5073071;28;20475;-59
2021/06/20 03:21:11;;;;;;;16.05;9.05;;;13.20;99.90;;;;;;5081914;28;20040;-59
2021/06/20 03:23:37;;;;;;;20.15;9.18;;;13.20;99.90;;;;;;5076573;28;20040;-60
2021/06/20 03:26:04;;;;;;;18.52;9.50;;;13.20;99.90;;;;;;5076918;28;20044;-60
2021/06/20 03:28:30;;;;;;;16.17;9.50;;;13.20;99.90;;;;;;5073342;28;20024;-59
2021/06/20 03:30:56;;;;;;;12.80;8.55;;;13.20;99.90;;;;;;5085273;28;20048;-60
2021/06/20 03:33:22;;;;;;;17.85;8.60;;;13.20;99.90;;;;;;5078016;28;20114;-60
2021/06/20 03:35:48;;;;;;;15.45;8.73;;;13.20;99.90;;;;;;5078658;28;20127;-60
2021/06/20 03:38:14;;;;;;;17.48;9.02;;;13.20;99.90;;;;;;5070316;28;20029;-59
2021/06/20 03:40:39;;;;;;;16.08;9.27;;;13.30;99.90;;;;;;5084603;28;20055;-60
2021/06/20 03:43:05;;;;;;;14.50;8.93;;;13.20;99.90;;;;;;5079560;28;20029;-60
2021/06/20 03:45:31;;;;;;;13.43;8.18;;;13.20;99.90;;;;;;5084166;28;20039;-60
2021/06/20 03:47:57;;;;;;;15.55;8.57;;;13.20;99.90;;;;;;5087124;28;20036;-60
2021/06/20 03:50:23;;;;;;;16.65;8.88;;;13.20;99.90;;;;;;5069286;28;20039;-60
2021/06/20 03:52:49;;;;;;;16.55;9.15;;;13.20;99.90;;;;;;5070852;28;20028;-60
2021/06/20 03:55:15;;;;;;;15.30;9.35;;;13.20;99.90;;;;;;5075202;28;20028;-60
2021/06/20 03:57:41;;;;;;;19.83;8.90;;;13.30;99.90;;;;;;5072611;28;20037;-60
2021/06/20 04:00:09;;;;;;;17.48;9.25;;;13.30;99.90;;;;;;5071149;28;20041;-60
2021/06/20 04:02:35;;;;;;;16.75;9.57;;;13.30;99.90;;;;;;5077021;28;20060;-60
2021/06/20 04:05:01;;;;;;;14.60;8.73;;;13.20;99.90;;;;;;5075205;28;20490;-60
2021/06/20 04:07:27;;;;;;;16.48;9.07;;;13.20;99.90;;;;;;5072439;28;20102;-60
2021/06/20 04:09:52;;;;;;;20.23;9.10;;;13.20;99.90;;;;;;5082041;28;20040;-60
2021/06/20 04:12:18;;;;;;;16.83;8.43;;;13.20;99.90;;;;;;5087745;28;20061;-60
2021/06/20 04:14:44;;;;;;;16.38;8.95;;;13.20;99.90;;;;;;5073934;28;20467;-60
2021/06/20 04:17:10;;;;;;;16.42;8.38;;;13.20;99.90;;;;;;5077678;28;20358;-60
2021/06/20 04:19:37;;;;;;;18.73;8.60;;;13.30;99.90;;;;;;5071686;28;20028;-59
2021/06/20 04:22:03;;;;;;;16.77;8.55;;;13.30;99.90;;;;;;5072275;28;20102;-60
2021/06/20 04:24:29;;;;;;;14.57;8.95;;;13.40;99.90;;;;;;5067488;28;20425;-60
2021/06/20 04:26:54;;;;;;;14.57;7.95;;;13.30;99.90;;;;;;5083528;28;20038;-60
2021/06/20 04:29:21;;;;;;;12.35;7.57;;;13.30;99.90;;;;;;5078547;28;20047;-59
2021/06/20 04:31:47;;;;;;;11.98;7.63;;;13.30;99.90;;;;;;5078882;28;20110;-59
2021/06/20 04:34:12;;;;;;;16.88;8.20;;;13.30;99.90;;;;;;5078467;28;20020;-60
2021/06/20 04:36:38;;;;;;;16.40;8.18;;;13.30;99.90;;;;;;5078479;28;20035;-60
2021/06/20 04:39:09;;;;;;;15.05;8.00;;;13.30;99.90;;;;;;5069376;28;20561;-59
2021/06/20 04:41:40;;;;;;;12.27;7.10;;;13.40;99.90;;;;;;5071823;28;20039;-59
2021/06/20 04:44:42;;;;;;;11.75;7.43;;;13.40;99.90;;;;;;5085088;28;20466;-59
2021/06/20 04:46:52;;;;;;;17.15;7.13;;;13.40;99.90;;;;;;5069616;28;20037;-60
2021/06/20 04:49:19;;;;;;;16.63;8.00;;;13.40;99.90;;;;;;5082071;28;20508;-60
2021/06/20 04:51:46;;;;;;;11.93;7.15;;;13.50;99.90;;;;;;5080918;28;20462;-60
2021/06/20 04:54:13;;;;;;;14.93;7.85;;;13.50;99.90;;;;;;5071685;28;20020;-59
2021/06/20 04:56:40;;;;;;;11.85;7.65;;;13.50;99.90;;;;;;5083427;28;20496;-59
2021/06/20 04:59:07;;;;;;;12.32;7.05;;;13.50;99.90;;;;;;5076027;28;20025;-60
2021/06/20 05:01:33;;;;;;;12.57;7.13;;;13.50;99.90;;;;;;5074470;28;20039;-60
2021/06/20 05:03:58;;;;;;;12.48;7.20;;;13.50;99.90;;;;;;5075548;28;20459;-60
2021/06/20 05:06:24;;;;;;;14.20;7.07;;;13.50;99.90;;;;;;5080006;28;20036;-60
2021/06/20 05:08:51;;;;;;;14.70;6.90;;;13.50;99.90;;;;;;5069880;28;20036;-60
2021/06/20 05:11:17;;;;;;;12.90;7.00;;;13.50;99.90;;;;;;5068816;28;20402;-60
2021/06/20 05:13:42;;;;;;;11.93;7.15;;;13.50;99.90;;;;;;5059118;28;20028;-59
2021/06/20 05:16:08;;;;;;;11.45;7.13;;;13.60;99.90;;;;;;5072481;28;20036;-60
2021/06/20 05:18:35;;;;;;;11.50;6.40;;;13.60;99.90;;;;;;5083358;28;20037;-59
2021/06/20 05:21:01;;;;;;;11.25;6.72;;;13.60;99.90;;;;;;5072435;28;20059;-60
2021/06/20 05:23:27;;;;;;;14.75;7.13;;;13.60;99.90;;;;;;5072025;28;20028;-60
2021/06/20 05:25:53;;;;;;;10.68;7.40;;;13.60;99.90;;;;;;5072193;28;20813;-60
2021/06/20 05:28:19;;;;;;;10.90;7.00;;;13.50;99.90;;;;;;5071164;28;20028;-60
2021/06/20 05:30:45;;;;;;;16.23;7.03;;;13.50;99.90;;;;;;5080948;28;20413;-59
2021/06/20 05:33:21;;;;;;;11.15;6.63;;;13.50;99.90;;;;;;5081752;28;20389;-61
2021/06/20 05:35:47;;;;;;;13.73;6.95;;;13.60;99.90;;;;;;5077352;28;20443;-59
2021/06/20 05:38:14;;;;;;;14.10;6.78;;;13.60;99.90;;;;;;5073144;28;20034;-59
2021/06/20 05:40:41;;;;;;;9.77;6.30;;;13.60;99.90;;;;;;5071602;28;20028;-60
2021/06/20 05:43:06;;;;;;;12.65;6.75;;;13.60;99.90;;;;;;5077641;28;20059;-59
2021/06/20 05:45:33;;;;;;;10.45;7.13;;;13.70;99.90;;;;;;5077264;28;20059;-60
2021/06/20 05:47:59;;;;;;;14.50;7.07;;;13.70;99.90;;;;;;5076679;28;20052;-59
2021/06/20 05:50:24;;;;;;;12.10;6.80;;;13.70;99.90;;;;;;5070073;28;20428;-59
2021/06/20 05:52:50;;;;;;;11.85;7.32;;;13.70;99.90;;;;;;5072086;28;20108;-60
2021/06/20 05:55:16;;;;;;;12.18;7.05;;;13.70;99.90;;;;;;5085539;28;20246;-60
2021/06/20 05:57:42;;;;;;;15.02;7.22;;;13.70;99.90;;;;;;5071092;28;20103;-61
2021/06/20 06:00:09;;;;;;;11.88;6.88;;;13.70;99.90;;;;;;5071268;28;20032;-59
2021/06/20 06:02:35;;;;;;;9.23;6.50;;;13.80;99.90;;;;;;5079891;28;20055;-60
2021/06/20 06:05:02;;;;;;;11.93;6.47;;;13.70;99.90;;;;;;5079577;28;20032;-59
2021/06/20 06:07:28;;;;;;;9.07;6.88;;;13.80;99.90;;;;;;5081371;28;20078;-59
2021/06/20 06:09:54;;;;;;;13.27;7.03;;;13.80;99.90;;;;;;5070801;28;20052;-60
2021/06/20 06:12:23;;;;;;;9.18;6.47;;;13.80;99.90;;;;;;5071885;28;20172;-60
2021/06/20 06:14:53;;;;;;;8.45;5.95;;;13.80;99.90;;;;;;5071109;28;20116;-59
2021/06/20 06:17:21;;;;;;;12.02;7.20;;;13.90;99.90;;;;;;5069526;28;20068;-60
2021/06/20 06:19:51;;;;;;;12.20;6.13;;;14.00;99.90;;;;;;5080812;28;20063;-60
2021/06/20 06:22:21;;;;;;;12.00;7.03;;;14.00;99.90;;;;;;5087295;28;20052;-59
2021/06/20 06:24:47;;;;;;;9.95;6.72;;;14.00;99.90;;;;;;5085408;28;20111;-60
2021/06/20 06:27:14;;;;;;;10.73;6.50;;;14.10;99.90;;;;;;5076886;28;20478;-60
2021/06/20 06:29:39;;;;;;;12.48;7.28;;;14.10;99.90;;;;;;5078093;28;20068;-60
2021/06/20 06:32:07;;;;;;;12.30;6.90;;;14.10;99.90;;;;;;5080000;28;20060;-60
2021/06/20 06:34:34;;;;;;;13.35;7.57;;;14.10;99.90;;;;;;5073655;28;20028;-60
2021/06/20 06:36:59;;;;;;;13.02;7.80;;;14.20;99.90;;;;;;5073014;28;20067;-60
2021/06/20 06:39:26;;;;;;;13.45;7.50;;;14.30;99.90;;;;;;5079065;28;20055;-60
2021/06/20 06:41:53;;;;;;;12.02;7.38;;;14.20;99.90;;;;;;5068769;28;20048;-60
2021/06/20 06:44:18;;;;;;;13.20;7.40;;;14.20;99.90;;;;;;5057904;28;20052;-60
2021/06/20 06:46:44;;;;;;;11.70;7.25;;;14.20;99.90;;;;;;5058357;28;20071;-60
2021/06/20 06:49:10;;;;;;;14.93;8.10;;;14.20;99.90;;;;;;5075603;28;20048;-59
2021/06/20 06:51:36;;;;;;;13.05;7.78;;;14.20;99.90;;;;;;5062135;28;20031;-59
2021/06/20 06:54:02;;;;;;;14.25;8.10;;;14.20;99.90;;;;;;5076817;28;20028;-59
2021/06/20 06:56:28;;;;;;;17.80;7.57;;;14.30;99.90;;;;;;5084313;28;20040;-60
2021/06/20 06:58:53;;;;;;;14.70;8.00;;;14.30;99.90;;;;;;5073081;28;20028;-60
2021/06/20 07:01:19;;;;;;;13.52;7.70;;;14.30;99.90;;;;;;5072916;28;20156;-59
2021/06/20 07:03:45;;;;;;;12.23;7.03;;;14.30;99.90;;;;;;5077598;28;20031;-60
2021/06/20 07:06:11;;;;;;;15.30;7.60;;;14.20;99.90;;;;;;5072168;28;20402;-60
2021/06/20 07:08:37;;;;;;;14.93;7.95;;;14.30;99.90;;;;;;5083895;28;20111;-60
2021/06/20 07:11:03;;;;;;;13.18;7.30;;;14.30;99.90;;;;;;5075968;28;20111;-60
2021/06/20 07:13:29;;;;;;;14.32;7.63;;;14.30;99.90;;;;;;5072389;28;20032;-60
2021/06/20 07:15:55;;;;;;;18.25;7.57;;;14.40;99.90;;;;;;5080019;28;20406;-60
2021/06/20 07:18:20;;;;;;;13.45;6.68;;;14.30;99.90;;;;;;5076526;28;20071;-59
2021/06/20 07:20:50;;;;;;;12.55;7.55;;;14.40;99.90;;;;;;5074012;28;20031;-61
2021/06/20 07:23:16;;;;;;;11.13;6.68;;;14.40;99.90;;;;;;5076067;28;20020;-60
2021/06/20 07:25:42;;;;;;;15.57;7.03;;;14.50;99.90;;;;;;5079011;28;20452;-60
2021/06/20 07:28:07;;;;;;;12.27;6.55;;;14.40;99.90;;;;;;5072030;28;20099;-59
2021/06/20 07:30:33;;;;;;;10.32;6.63;;;14.40;99.90;;;;;;5085627;28;20410;-60
2021/06/20 07:32:59;;;;;;;9.38;6.22;;;14.40;99.90;;;;;;5071368;28;20029;-60
2021/06/20 07:35:26;;;;;;;13.80;7.13;;;14.30;99.90;;;;;;5077356;28;20032;-60
2021/06/20 07:37:51;;;;;;;11.05;6.30;;;14.20;99.90;;;;;;5079099;28;20029;-60
2021/06/20 07:40:18;;;;;;;18.33;7.65;;;14.30;99.90;;;;;;5065072;28;20032;-59
2021/06/20 07:42:45;;;;;;;14.40;8.00;;;14.30;99.90;;;;;;5077556;28;20494;-60
2021/06/20 07:45:12;;;;;;;11.82;7.30;;;14.30;99.90;;;;;;5073415;28;20458;-59
2021/06/20 07:47:38;;;;;;;9.65;6.95;;;14.30;99.90;;;;;;5079838;28;20083;-59
2021/06/20 07:50:09;;;;;;;14.70;7.30;;;14.30;99.90;;;;;;5075448;28;20482;-60
2021/06/20 07:52:35;;;;;;;15.73;8.20;;;14.30;99.90;;;;;;5076203;28;20067;-61
2021/06/20 07:55:01;;;;;;;10.38;7.53;;;14.30;99.90;;;;;;5072128;28;20032;-60
2021/06/20 07:57:27;;;;;;;13.60;7.57;;;14.30;99.90;;;;;;5073474;28;20502;-60
2021/06/20 07:59:53;;;;;;;16.70;8.38;;;14.30;99.90;;;;;;5075661;28;20054;-59
2021/06/20 08:02:19;;;;;;;15.48;8.23;;;14.30;99.90;;;;;;5080865;28;20032;-60
2021/06/20 08:04:45;;;;;;;16.63;8.38;;;14.30;99.90;;;;;;5071776;28;20150;-60
2021/06/20 08:07:11;;;;;;;14.98;7.72;;;14.40;99.90;;;;;;5080644;28;20038;-60
2021/06/20 08:09:37;;;;;;;21.55;8.80;;;14.40;99.90;;;;;;5072869;28;20036;-60
2021/06/20 08:12:08;;;;;;;14.70;8.40;;;14.50;99.90;;;;;;5074295;28;20021;-60
2021/06/20 08:14:34;;;;;;;15.88;7.60;;;14.50;99.90;;;;;;5077869;28;20032;-59
2021/06/20 08:17:00;;;;;;;14.02;8.20;;;14.50;99.90;;;;;;5069374;28;20036;-60
2021/06/20 08:19:26;;;;;;;15.13;8.52;;;14.50;99.90;;;;;;5070912;28;20029;-60
2021/06/20 08:21:52;;;;;;;15.77;8.20;;;14.60;99.90;;;;;;5070356;28;20413;-60
2021/06/20 08:24:17;;;;;;;16.58;8.05;;;14.60;99.90;;;;;;5080769;28;20078;-60
2021/06/20 08:26:45;;;;;;;17.92;8.80;;;14.60;99.90;;;;;;5074403;28;20390;-60
2021/06/20 08:29:12;;;;;;;17.73;9.07;;;14.60;99.90;;;;;;5074827;28;20095;-60
2021/06/20 08:31:38;;;;;;;18.02;8.75;;;14.70;99.90;;;;;;5078984;28;20078;-59
2021/06/20 08:34:07;;;;;;;20.05;8.63;;;14.70;99.90;;;;;;5074838;28;20425;-60
2021/06/20 08:36:32;;;;;;;18.90;7.88;;;14.70;99.90;;;;;;5080338;28;20036;-59
2021/06/20 08:38:58;;;;;;;20.35;8.68;;;14.70;99.90;;;;;;5075619;28;20490;-59
2021/06/20 08:41:27;;;;;;;11.88;7.80;;;14.70;99.90;;;;;;5071002;28;20028;-60
2021/06/20 08:43:53;;;;;;;13.13;7.78;;;14.90;99.90;;;;;;5077106;28;20107;-60
2021/06/20 08:46:20;;;;;;;14.35;7.63;;;15.00;99.90;;;;;;5075896;28;20072;-60
2021/06/20 08:48:46;;;;;;;12.30;7.10;;;15.00;99.90;;;;;;5078289;28;20056;-59
2021/06/20 08:51:12;;;;;;;14.02;7.93;;;15.00;99.90;;;;;;5079245;28;20063;-60
2021/06/20 08:53:38;;;;;;;17.95;8.00;;;14.90;99.90;;;;;;5074532;28;20051;-59
2021/06/20 08:56:04;;;;;;;18.95;8.45;;;14.90;99.90;;;;;;5082353;28;20028;-59
2021/06/20 08:58:33;;;;;;;22.50;8.60;;;15.00;99.90;;;;;;5082520;28;20028;-60
2021/06/20 09:01:01;;;;;;;18.08;7.93;;;15.10;99.90;;;;;;5072591;28;20025;-59
2021/06/20 09:03:56;;;;;;;14.88;7.55;;;15.10;99.90;;;;;;5070728;28;20087;-60
2021/06/20 09:06:24;;;;;;;14.50;7.28;;;15.00;99.90;;;;;;5064861;28;20036;-60
2021/06/20 09:08:57;;;;;;;13.55;7.28;;;15.00;99.90;;;;;;5078939;28;20145;-60
2021/06/20 09:11:33;;;;;;;11.10;7.38;;;15.10;99.90;;;;;;5059690;28;20497;-60
2021/06/20 09:14:16;;;;;;;17.77;7.72;;;15.10;99.90;;;;;;5082212;28;20429;-60
2021/06/20 09:16:45;;;;;;;12.27;7.55;;;15.20;99.90;;;;;;5069886;28;20036;-60
2021/06/20 09:19:10;;;;;;;19.10;8.10;;;15.30;99.90;;;;;;5070964;28;20032;-60
2021/06/20 09:21:36;;;;;;;18.48;7.32;;;15.20;99.90;;;;;;5071170;28;20028;-60
2021/06/20 09:24:02;;;;;;;14.10;7.03;;;15.30;99.90;;;;;;5076084;28;20106;-60
2021/06/20 09:26:52;;;;;;;14.73;7.85;;;15.30;99.90;;;;;;5076184;28;20047;-60
2021/06/20 09:29:31;;;;;;;11.93;6.18;;;15.20;99.90;;;;;;5078850;28;20460;-59
2021/06/20 09:31:59;;;;;;;18.15;7.22;;;15.20;99.90;;;;;;5073326;28;20064;-60
2021/06/20 09:34:24;;;;;;;13.57;6.90;;;15.30;99.90;;;;;;5075276;28;20256;-60
2021/06/20 09:37:03;;;;;;;16.98;6.28;;;15.20;99.90;;;;;;5076101;28;20482;-60
2021/06/20 09:39:30;;;;;;;14.80;7.28;;;15.30;99.90;;;;;;5069592;28;20059;-60
2021/06/20 09:42:00;;;;;;;17.98;6.78;;;15.50;99.90;;;;;;5060322;28;20025;-59
2021/06/20 09:44:37;;;;;;;11.18;6.18;;;15.40;99.90;;;;;;5078950;28;20039;-59
2021/06/20 09:47:04;;;;;;;13.32;6.63;;;15.30;99.90;;;;;;5072347;28;20036;-61
2021/06/20 09:49:30;;;;;;;15.77;7.32;;;15.30;99.90;;;;;;5084932;28;20024;-59
2021/06/20 09:51:57;;;;;;;13.52;7.22;;;15.30;99.90;;;;;;5078053;28;20035;-59
2021/06/20 09:54:31;;;;;;;18.55;7.25;;;15.30;99.90;;;;;;5078619;28;20042;-59
2021/06/20 09:56:57;;;;;;;15.55;10.30;;;15.30;99.90;;;;;;5079346;28;20492;-60
2021/06/20 09:59:31;;;;;;;23.35;7.78;;;15.30;99.90;;;;;;5074879;28;20036;-59
2021/06/20 10:02:08;;;;;;;19.77;8.68;;;15.30;99.90;;;;;;5080327;28;20506;-59
2021/06/20 10:04:40;;;;;;;14.25;7.40;;;15.40;99.90;;;;;;5079217;28;20041;-60
2021/06/20 10:07:07;;;;;;;25.38;8.30;;;15.40;99.90;;;;;;5076428;28;20047;-60
2021/06/20 10:09:34;;;;;;;13.88;6.72;;;15.40;99.90;;;;;;5073233;28;20433;-59
2021/06/20 10:12:02;;;;;;;10.23;6.55;;;15.40;99.90;;;;;;5074345;28;20218;-60
2021/06/20 10:14:28;;;;;;;15.70;6.47;;;15.40;99.90;;;;;;5073531;28;20082;-60
2021/06/20 10:17:00;;;;;;;13.05;6.88;;;15.50;99.90;;;;;;5073668;28;20044;-61
2021/06/20 10:19:27;;;;;;;12.80;7.13;;;15.50;99.90;;;;;;5073150;28;20036;-60
2021/06/20 10:22:03;;;;;;;90.63;33.80;;;15.40;99.90;;;;;;5073887;28;20113;-60
2021/06/20 10:24:30;;;;;;;30.10;11.18;;;15.40;99.90;;;;;;5075460;28;20528;-59
2021/06/20 10:26:59;;;;;;;14.60;8.32;;;15.40;99.90;;;;;;5073768;28;20032;-59
2021/06/20 10:29:29;;;;;;;17.85;8.23;;;15.40;99.90;;;;;;5073015;28;20056;-59
2021/06/20 10:31:56;;;;;;;16.13;7.68;;;15.50;99.90;;;;;;5073343;28;20111;-59
2021/06/20 10:34:28;;;;;;;11.73;6.95;;;15.60;99.90;;;;;;5070625;28;20032;-59
2021/06/20 10:37:07;;;;;;;14.20;6.78;;;15.50;99.90;;;;;;5075224;28;20024;-60
2021/06/20 10:39:33;;;;;;;14.02;7.20;;;15.60;99.90;;;;;;5072545;28;20025;-59
2021/06/20 10:42:09;;;;;;;8.45;6.40;;;15.60;99.90;;;;;;5073451;28;20150;-59
2021/06/20 10:44:47;;;;;;;12.80;6.85;;;15.60;99.90;;;;;;5061586;28;20031;-60
2021/06/20 10:47:43;;;;;;;7.15;5.43;;;15.70;99.90;;;;;;5071847;28;20238;-58
2021/06/20 10:50:15;;;;;;;10.05;5.63;;;15.70;99.90;;;;;;5073699;28;20126;-59
2021/06/20 10:52:54;;;;;;;11.13;5.68;;;15.70;99.90;;;;;;5072833;28;20389;-60
2021/06/20 10:55:20;;;;;;;11.57;5.85;;;15.90;99.90;;;;;;5072963;28;20035;-60
2021/06/20 10:57:56;;;;;;;8.35;5.80;;;16.00;99.90;;;;;;5073525;28;20032;-61
2021/06/20 11:00:29;;;;;;;6.60;5.30;;;16.10;99.90;;;;;;5072987;28;20033;-59
2021/06/20 11:03:07;;;;;;;6.68;5.28;;;16.20;99.90;;;;;;5063033;28;20171;-59
2021/06/20 11:05:45;;;;;;;6.13;5.32;;;16.20;99.90;;;;;;5074279;28;20423;-60
2021/06/20 11:08:12;;;;;;;7.75;5.60;;;16.30;99.90;;;;;;5073271;28;20036;-60
2021/06/20 11:10:38;;;;;;;8.57;5.03;;;16.30;99.90;;;;;;5072677;28;20043;-60
2021/06/20 11:13:04;;;;;;;14.10;5.95;;;16.50;99.90;;;;;;5075679;28;20142;-60
2021/06/20 11:15:31;;;;;;;8.80;5.35;;;16.40;99.90;;;;;;5079365;28;20480;-60
2021/06/20 11:18:07;;;;;;;11.50;5.55;;;16.40;99.90;;;;;;5083061;28;20237;-60
2021/06/20 11:20:34;;;;;;;10.25;5.80;;;16.40;99.90;;;;;;5073227;28;20031;-61
2021/06/20 11:23:00;;;;;;;17.90;5.22;;;16.60;99.90;;;;;;5066552;28;20099;-60
2021/06/20 11:25:27;;;;;;;13.20;5.25;;;16.50;99.90;;;;;;5072355;28;20080;-60
2021/06/20 11:27:53;;;;;;;13.75;5.57;;;16.50;99.90;;;;;;5071834;28;20023;-60
2021/06/20 11:30:20;;;;;;;15.52;7.78;;;16.60;99.90;;;;;;5071751;28;20433;-60
2021/06/20 11:32:46;;;;;;;5.85;4.03;;;16.70;99.90;;;;;;5072071;28;20126;-60
2021/06/20 11:35:15;;;;;;;15.77;5.97;;;16.80;99.90;;;;;;5071722;28;20474;-60
2021/06/20 11:37:49;;;;;;;14.18;5.03;;;16.70;99.90;;;;;;5071730;28;20028;-59
2021/06/20 11:40:19;;;;;;;5.90;4.40;;;16.70;99.90;;;;;;5070055;28;20017;-60
2021/06/20 11:42:48;;;;;;;16.83;5.82;;;16.50;99.90;;;;;;5065048;28;20118;-60
2021/06/20 11:45:22;;;;;;;11.82;4.95;;;16.60;99.90;;;;;;5070037;28;20378;-61
2021/06/20 11:47:51;;;;;;;7.13;4.20;;;16.90;99.90;;;;;;5060486;28;20401;-60
2021/06/20 11:50:27;;;;;;;6.47;3.65;;;17.20;99.90;;;;;;5069888;28;20543;-60
2021/06/20 11:53:09;;;;;;;7.95;3.85;;;17.20;99.90;;;;;;5071907;28;20112;-60
2021/06/20 11:55:39;;;;;;;10.43;4.57;;;17.40;99.90;;;;;;5078703;28;20093;-60
2021/06/20 11:58:08;;;;;;;7.40;4.63;;;17.50;99.90;;;;;;5070062;28;20025;-59
2021/06/20 12:00:39;;;;;;;8.43;5.70;;;17.50;99.90;;;;;;5073287;28;20035;-60
2021/06/20 12:03:07;;;;;;;9.20;4.25;;;17.60;99.90;;;;;;5072299;28;20471;-60
2021/06/20 12:05:50;;;;;;;6.00;3.70;;;17.50;99.90;;;;;;5065013;28;20390;-59
2021/06/20 12:08:17;;;;;;;6.32;4.18;;;17.40;99.90;;;;;;5071990;28;20085;-59
2021/06/20 12:10:45;;;;;;;7.20;3.92;;;17.40;99.90;;;;;;5071094;28;20505;-61
2021/06/20 12:13:12;;;;;;;4.32;3.35;;;17.20;99.90;;;;;;5082788;28;20016;-60
2021/06/20 12:15:40;;;;;;;6.57;4.00;;;17.10;99.90;;;;;;5073832;28;20489;-59
2021/06/20 12:18:15;;;;;;;8.35;4.28;;;17.10;99.90;;;;;;5068934;28;20024;-60
2021/06/20 12:20:51;;;;;;;7.25;4.00;;;17.00;99.90;;;;;;5070269;28;20089;-60
2021/06/20 12:23:24;;;;;;;6.47;4.20;;;17.00;99.90;;;;;;5071482;28;20367;-60
2021/06/20 12:25:51;;;;;;;5.50;3.78;;;17.10;99.90;;;;;;5084134;28;20036;-60
2021/06/20 12:28:18;;;;;;;6.40;3.47;;;17.00;99.90;;;;;;5070697;28;20044;-60
2021/06/20 12:30:46;;;;;;;3.28;2.97;;;17.00;99.90;;;;;;5068790;28;20032;-60
2021/06/20 12:33:15;;;;;;;13.50;3.97;;;16.90;99.90;;;;;;5067123;28;20020;-59
2021/06/20 12:35:43;;;;;;;6.65;3.53;;;16.90;99.90;;;;;;5057394;28;20075;-60
2021/06/20 12:38:23;;;;;;;3.90;3.00;;;17.00;99.90;;;;;;5060851;28;20028;-60
2021/06/20 12:40:50;;;;;;;8.65;3.38;;;16.90;99.90;;;;;;5072289;28;20035;-60